sensor_id;sensor_type;location;lat;lon;timestamp;P1;durP1;ratioP1;P2;durP2;ratioP2
75892;SDS011;64572;50.950;3.676;2023-03-01T00:01:34;24.63;;;13.50;;
75892;SDS011;64572;50.950;3.676;2023-03-01T00:04:00;26.92;;;13.55;;
75892;SDS011;64572;50.950;3.676;2023-03-01T00:06:26;27.45;;;13.07;;
75892;SDS011;64572;50.950;3.676;2023-03-01T00:08:52;25.48;;;12.77;;
75892;SDS011;64572;50.950;3.676;2023-03-01T00:11:19;25.65;;;13.07;;
75892;SDS011;64572;50.950;3.676;2023-03-01T00:13:47;24.95;;;13.30;;
75892;SDS011;64572;50.950;3.676;2023-03-01T00:16:15;27.17;;;12.90;;
75892;SDS011;64572;50.950;3.676;2023-03-01T00:18:46;23.92;;;12.50;;
75892;SDS011;64572;50.950;3.676;2023-03-01T00:21:12;22.10;;;13.00;;
75892;SDS011;64572;50.950;3.676;2023-03-01T00:23:38;23.60;;;12.32;;
75892;SDS011;64572;50.950;3.676;2023-03-01T00:26:08;21.95;;;12.57;;
75892;SDS011;64572;50.950;3.676;2023-03-01T00:28:36;20.52;;;11.57;;
75892;SDS011;64572;50.950;3.676;2023-03-01T00:33:30;22.10;;;13.00;;
75892;SDS011;64572;50.950;3.676;2023-03-01T00:35:59;25.10;;;12.20;;
75892;SDS011;64572;50.950;3.676;2023-03-01T00:38:25;27.67;;;12.50;;
75892;SDS011;64572;50.950;3.676;2023-03-01T00:40:51;21.63;;;11.88;;
75892;SDS011;64572;50.950;3.676;2023-03-01T00:43:17;24.23;;;12.27;;
75892;SDS011;64572;50.950;3.676;2023-03-01T00:45:43;21.45;;;11.98;;
75892;SDS011;64572;50.950;3.676;2023-03-01T00:48:09;19.92;;;11.32;;
75892;SDS011;64572;50.950;3.676;2023-03-01T00:50:35;22.15;;;11.68;;
75892;SDS011;64572;50.950;3.676;2023-03-01T00:53:01;21.50;;;11.20;;
75892;SDS011;64572;50.950;3.676;2023-03-01T00:55:27;19.95;;;10.45;;
75892;SDS011;64572;50.950;3.676;2023-03-01T00:57:52;20.38;;;11.43;;
75892;SDS011;64572;50.950;3.676;2023-03-01T01:00:18;20.75;;;11.15;;
75892;SDS011;64572;50.950;3.676;2023-03-01T01:02:45;23.15;;;11.85;;
75892;SDS011;64572;50.950;3.676;2023-03-01T01:05:11;30.55;;;11.75;;
75892;SDS011;64572;50.950;3.676;2023-03-01T01:07:38;21.30;;;11.70;;
75892;SDS011;64572;50.950;3.676;2023-03-01T01:10:04;26.65;;;12.20;;
75892;SDS011;64572;50.950;3.676;2023-03-01T01:12:30;22.00;;;11.43;;
75892;SDS011;64572;50.950;3.676;2023-03-01T01:14:57;22.98;;;11.30;;
75892;SDS011;64572;50.950;3.676;2023-03-01T01:17:22;21.55;;;11.25;;
75892;SDS011;64572;50.950;3.676;2023-03-01T01:19:48;20.10;;;11.13;;
75892;SDS011;64572;50.950;3.676;2023-03-01T01:22:14;18.60;;;10.57;;
75892;SDS011;64572;50.950;3.676;2023-03-01T01:24:39;22.38;;;11.13;;
75892;SDS011;64572;50.950;3.676;2023-03-01T01:27:05;19.50;;;11.27;;
75892;SDS011;64572;50.950;3.676;2023-03-01T01:29:32;20.20;;;10.27;;
75892;SDS011;64572;50.950;3.676;2023-03-01T01:31:57;21.98;;;10.90;;
75892;SDS011;64572;50.950;3.676;2023-03-01T01:34:23;21.38;;;11.30;;
75892;SDS011;64572;50.950;3.676;2023-03-01T01:36:49;23.13;;;11.88;;
75892;SDS011;64572;50.950;3.676;2023-03-01T01:39:18;20.17;;;11.23;;
75892;SDS011;64572;50.950;3.676;2023-03-01T01:41:44;26.45;;;11.98;;
75892;SDS011;64572;50.950;3.676;2023-03-01T01:44:20;22.90;;;12.45;;
75892;SDS011;64572;50.950;3.676;2023-03-01T01:49:32;25.15;;;11.18;;
75892;SDS011;64572;50.950;3.676;2023-03-01T01:52:08;23.35;;;12.27;;
75892;SDS011;64572;50.950;3.676;2023-03-01T01:54:49;21.70;;;10.68;;
75892;SDS011;64572;50.950;3.676;2023-03-01T01:57:25;22.45;;;11.77;;
75892;SDS011;64572;50.950;3.676;2023-03-01T01:59:53;22.83;;;12.73;;
75892;SDS011;64572;50.950;3.676;2023-03-01T02:02:24;23.95;;;11.68;;
75892;SDS011;64572;50.950;3.676;2023-03-01T02:04:52;27.58;;;12.88;;
75892;SDS011;64572;50.950;3.676;2023-03-01T02:07:23;21.50;;;10.75;;
75892;SDS011;64572;50.950;3.676;2023-03-01T02:09:51;22.55;;;11.55;;
75892;SDS011;64572;50.950;3.676;2023-03-01T02:12:19;24.60;;;11.88;;
75892;SDS011;64572;50.950;3.676;2023-03-01T02:14:47;21.88;;;12.05;;
75892;SDS011;64572;50.950;3.676;2023-03-01T02:17:14;24.33;;;12.90;;
75892;SDS011;64572;50.950;3.676;2023-03-01T02:22:13;24.98;;;12.25;;
75892;SDS011;64572;50.950;3.676;2023-03-01T02:24:50;24.45;;;11.50;;
75892;SDS011;64572;50.950;3.676;2023-03-01T02:27:30;22.60;;;11.45;;
75892;SDS011;64572;50.950;3.676;2023-03-01T02:30:10;20.42;;;11.23;;
75892;SDS011;64572;50.950;3.676;2023-03-01T02:32:37;21.98;;;11.10;;
75892;SDS011;64572;50.950;3.676;2023-03-01T02:35:06;22.65;;;11.32;;
75892;SDS011;64572;50.950;3.676;2023-03-01T02:37:35;22.92;;;11.57;;
75892;SDS011;64572;50.950;3.676;2023-03-01T02:40:03;25.15;;;12.93;;
75892;SDS011;64572;50.950;3.676;2023-03-01T02:42:36;23.50;;;12.57;;
75892;SDS011;64572;50.950;3.676;2023-03-01T02:45:09;23.88;;;11.90;;
75892;SDS011;64572;50.950;3.676;2023-03-01T02:47:35;21.73;;;11.30;;
75892;SDS011;64572;50.950;3.676;2023-03-01T02:50:01;22.88;;;12.13;;
75892;SDS011;64572;50.950;3.676;2023-03-01T02:52:29;22.48;;;12.02;;
75892;SDS011;64572;50.950;3.676;2023-03-01T02:57:33;28.95;;;11.95;;
75892;SDS011;64572;50.950;3.676;2023-03-01T03:00:03;23.42;;;11.90;;
75892;SDS011;64572;50.950;3.676;2023-03-01T03:02:33;22.08;;;12.05;;
75892;SDS011;64572;50.950;3.676;2023-03-01T03:07:37;24.58;;;12.75;;
75892;SDS011;64572;50.950;3.676;2023-03-01T03:12:31;23.38;;;12.55;;
75892;SDS011;64572;50.950;3.676;2023-03-01T03:14:57;27.33;;;15.18;;
75892;SDS011;64572;50.950;3.676;2023-03-01T03:17:22;27.70;;;14.90;;
75892;SDS011;64572;50.950;3.676;2023-03-01T03:19:48;27.10;;;14.13;;
75892;SDS011;64572;50.950;3.676;2023-03-01T03:22:14;24.33;;;13.68;;
75892;SDS011;64572;50.950;3.676;2023-03-01T03:24:39;29.08;;;13.80;;
75892;SDS011;64572;50.950;3.676;2023-03-01T03:27:05;25.00;;;13.80;;
75892;SDS011;64572;50.950;3.676;2023-03-01T03:29:32;23.98;;;12.73;;
75892;SDS011;64572;50.950;3.676;2023-03-01T03:31:58;23.63;;;13.23;;
75892;SDS011;64572;50.950;3.676;2023-03-01T03:34:24;26.85;;;16.00;;
75892;SDS011;64572;50.950;3.676;2023-03-01T03:36:56;29.08;;;15.20;;
75892;SDS011;64572;50.950;3.676;2023-03-01T03:39:24;27.75;;;15.57;;
75892;SDS011;64572;50.950;3.676;2023-03-01T03:41:52;33.17;;;16.88;;
75892;SDS011;64572;50.950;3.676;2023-03-01T03:44:18;31.38;;;16.45;;
75892;SDS011;64572;50.950;3.676;2023-03-01T03:46:44;30.85;;;16.50;;
75892;SDS011;64572;50.950;3.676;2023-03-01T03:49:10;37.50;;;18.98;;
75892;SDS011;64572;50.950;3.676;2023-03-01T03:51:35;29.23;;;14.88;;
75892;SDS011;64572;50.950;3.676;2023-03-01T03:54:01;33.15;;;17.13;;
75892;SDS011;64572;50.950;3.676;2023-03-01T03:56:26;30.52;;;15.48;;
75892;SDS011;64572;50.950;3.676;2023-03-01T03:58:52;30.02;;;14.60;;
75892;SDS011;64572;50.950;3.676;2023-03-01T04:01:18;30.80;;;16.08;;
75892;SDS011;64572;50.950;3.676;2023-03-01T04:03:44;31.52;;;15.90;;
75892;SDS011;64572;50.950;3.676;2023-03-01T04:06:13;28.63;;;15.90;;
75892;SDS011;64572;50.950;3.676;2023-03-01T04:08:39;31.92;;;15.93;;
75892;SDS011;64572;50.950;3.676;2023-03-01T04:11:05;31.08;;;17.08;;
75892;SDS011;64572;50.950;3.676;2023-03-01T04:13:51;29.15;;;14.45;;
75892;SDS011;64572;50.950;3.676;2023-03-01T04:16:17;28.65;;;14.88;;
75892;SDS011;64572;50.950;3.676;2023-03-01T04:18:43;29.67;;;16.60;;
75892;SDS011;64572;50.950;3.676;2023-03-01T04:21:09;27.60;;;14.25;;
75892;SDS011;64572;50.950;3.676;2023-03-01T04:23:36;31.77;;;17.48;;
75892;SDS011;64572;50.950;3.676;2023-03-01T04:26:02;31.55;;;16.50;;
75892;SDS011;64572;50.950;3.676;2023-03-01T04:28:29;36.00;;;16.25;;
75892;SDS011;64572;50.950;3.676;2023-03-01T04:31:10;27.73;;;15.52;;
75892;SDS011;64572;50.950;3.676;2023-03-01T04:36:09;34.97;;;18.05;;
75892;SDS011;64572;50.950;3.676;2023-03-01T04:38:39;36.28;;;19.52;;
75892;SDS011;64572;50.950;3.676;2023-03-01T04:41:06;35.42;;;18.92;;
75892;SDS011;64572;50.950;3.676;2023-03-01T04:43:33;43.78;;;21.13;;
75892;SDS011;64572;50.950;3.676;2023-03-01T04:46:03;36.45;;;19.95;;
75892;SDS011;64572;50.950;3.676;2023-03-01T04:48:34;37.53;;;19.20;;
75892;SDS011;64572;50.950;3.676;2023-03-01T04:51:03;42.45;;;21.48;;
75892;SDS011;64572;50.950;3.676;2023-03-01T04:53:31;39.33;;;21.50;;
75892;SDS011;64572;50.950;3.676;2023-03-01T04:55:57;42.45;;;21.92;;
75892;SDS011;64572;50.950;3.676;2023-03-01T04:58:24;43.42;;;22.55;;
75892;SDS011;64572;50.950;3.676;2023-03-01T05:00:51;39.77;;;20.13;;
75892;SDS011;64572;50.950;3.676;2023-03-01T05:03:18;39.20;;;19.90;;
75892;SDS011;64572;50.950;3.676;2023-03-01T05:05:45;41.88;;;21.55;;
75892;SDS011;64572;50.950;3.676;2023-03-01T05:08:12;43.55;;;22.67;;
75892;SDS011;64572;50.950;3.676;2023-03-01T05:10:51;44.40;;;21.63;;
75892;SDS011;64572;50.950;3.676;2023-03-01T05:13:18;39.65;;;21.33;;
75892;SDS011;64572;50.950;3.676;2023-03-01T05:15:49;41.55;;;21.75;;
75892;SDS011;64572;50.950;3.676;2023-03-01T05:18:19;41.25;;;21.20;;
75892;SDS011;64572;50.950;3.676;2023-03-01T05:20:45;36.97;;;21.27;;
75892;SDS011;64572;50.950;3.676;2023-03-01T05:23:12;39.80;;;20.65;;
75892;SDS011;64572;50.950;3.676;2023-03-01T05:25:37;40.20;;;18.17;;
75892;SDS011;64572;50.950;3.676;2023-03-01T05:28:05;39.72;;;20.08;;
75892;SDS011;64572;50.950;3.676;2023-03-01T05:30:34;39.70;;;21.23;;
75892;SDS011;64572;50.950;3.676;2023-03-01T05:33:00;35.78;;;20.13;;
75892;SDS011;64572;50.950;3.676;2023-03-01T05:35:26;58.78;;;29.15;;
75892;SDS011;64572;50.950;3.676;2023-03-01T05:37:52;49.47;;;25.95;;
75892;SDS011;64572;50.950;3.676;2023-03-01T05:40:19;46.78;;;24.02;;
75892;SDS011;64572;50.950;3.676;2023-03-01T05:42:50;56.10;;;24.48;;
75892;SDS011;64572;50.950;3.676;2023-03-01T05:45:21;43.22;;;21.95;;
75892;SDS011;64572;50.950;3.676;2023-03-01T05:47:48;44.90;;;21.73;;
75892;SDS011;64572;50.950;3.676;2023-03-01T05:50:19;39.00;;;20.15;;
75892;SDS011;64572;50.950;3.676;2023-03-01T05:52:51;42.20;;;21.77;;
75892;SDS011;64572;50.950;3.676;2023-03-01T05:55:21;41.45;;;21.67;;
75892;SDS011;64572;50.950;3.676;2023-03-01T05:57:47;41.50;;;20.98;;
75892;SDS011;64572;50.950;3.676;2023-03-01T06:00:15;38.28;;;20.20;;
75892;SDS011;64572;50.950;3.676;2023-03-01T06:02:42;33.97;;;16.90;;
75892;SDS011;64572;50.950;3.676;2023-03-01T06:05:08;41.50;;;19.77;;
75892;SDS011;64572;50.950;3.676;2023-03-01T06:07:35;36.28;;;17.13;;
75892;SDS011;64572;50.950;3.676;2023-03-01T06:10:02;41.33;;;21.05;;
75892;SDS011;64572;50.950;3.676;2023-03-01T06:12:32;35.50;;;19.00;;
75892;SDS011;64572;50.950;3.676;2023-03-01T06:14:59;43.43;;;20.80;;
75892;SDS011;64572;50.950;3.676;2023-03-01T06:17:25;41.13;;;20.15;;
75892;SDS011;64572;50.950;3.676;2023-03-01T06:19:51;39.90;;;20.20;;
75892;SDS011;64572;50.950;3.676;2023-03-01T06:22:16;34.47;;;14.75;;
75892;SDS011;64572;50.950;3.676;2023-03-01T06:24:42;46.22;;;21.30;;
75892;SDS011;64572;50.950;3.676;2023-03-01T06:27:07;45.85;;;21.52;;
75892;SDS011;64572;50.950;3.676;2023-03-01T06:29:33;44.90;;;21.50;;
75892;SDS011;64572;50.950;3.676;2023-03-01T06:31:59;46.33;;;21.20;;
75892;SDS011;64572;50.950;3.676;2023-03-01T06:34:24;50.42;;;22.27;;
75892;SDS011;64572;50.950;3.676;2023-03-01T06:36:50;40.88;;;21.10;;
75892;SDS011;64572;50.950;3.676;2023-03-01T06:39:16;47.28;;;23.00;;
75892;SDS011;64572;50.950;3.676;2023-03-01T06:41:42;38.05;;;20.02;;
75892;SDS011;64572;50.950;3.676;2023-03-01T06:44:08;47.47;;;22.17;;
75892;SDS011;64572;50.950;3.676;2023-03-01T06:46:34;42.17;;;21.00;;
75892;SDS011;64572;50.950;3.676;2023-03-01T06:49:00;43.53;;;20.75;;
75892;SDS011;64572;50.950;3.676;2023-03-01T06:51:25;45.75;;;21.42;;
75892;SDS011;64572;50.950;3.676;2023-03-01T06:53:51;39.45;;;21.02;;
75892;SDS011;64572;50.950;3.676;2023-03-01T06:56:17;39.45;;;20.98;;
75892;SDS011;64572;50.950;3.676;2023-03-01T06:58:42;53.08;;;25.63;;
75892;SDS011;64572;50.950;3.676;2023-03-01T07:01:08;37.75;;;20.45;;
75892;SDS011;64572;50.950;3.676;2023-03-01T07:03:34;59.28;;;31.98;;
75892;SDS011;64572;50.950;3.676;2023-03-01T07:06:00;43.58;;;22.10;;
75892;SDS011;64572;50.950;3.676;2023-03-01T07:08:25;39.35;;;20.70;;
75892;SDS011;64572;50.950;3.676;2023-03-01T07:10:57;40.88;;;19.38;;
75892;SDS011;64572;50.950;3.676;2023-03-01T07:13:24;42.33;;;21.15;;
75892;SDS011;64572;50.950;3.676;2023-03-01T07:15:49;41.45;;;20.08;;
75892;SDS011;64572;50.950;3.676;2023-03-01T07:18:15;39.35;;;20.35;;
75892;SDS011;64572;50.950;3.676;2023-03-01T07:20:41;39.33;;;19.92;;
75892;SDS011;64572;50.950;3.676;2023-03-01T07:23:06;40.30;;;19.73;;
75892;SDS011;64572;50.950;3.676;2023-03-01T07:25:32;39.65;;;19.85;;
75892;SDS011;64572;50.950;3.676;2023-03-01T07:27:58;40.50;;;18.75;;
75892;SDS011;64572;50.950;3.676;2023-03-01T07:30:24;36.63;;;18.98;;
75892;SDS011;64572;50.950;3.676;2023-03-01T07:32:52;38.70;;;18.27;;
75892;SDS011;64572;50.950;3.676;2023-03-01T07:35:18;32.20;;;17.98;;
75892;SDS011;64572;50.950;3.676;2023-03-01T07:37:43;31.95;;;17.45;;
75892;SDS011;64572;50.950;3.676;2023-03-01T07:40:09;29.52;;;13.93;;
75892;SDS011;64572;50.950;3.676;2023-03-01T07:42:36;32.25;;;17.10;;
75892;SDS011;64572;50.950;3.676;2023-03-01T07:45:02;34.67;;;16.70;;
75892;SDS011;64572;50.950;3.676;2023-03-01T07:47:29;22.67;;;10.48;;
75892;SDS011;64572;50.950;3.676;2023-03-01T07:49:54;26.73;;;14.27;;
75892;SDS011;64572;50.950;3.676;2023-03-01T07:52:20;34.80;;;16.23;;
75892;SDS011;64572;50.950;3.676;2023-03-01T07:54:45;29.80;;;16.52;;
75892;SDS011;64572;50.950;3.676;2023-03-01T07:57:11;29.08;;;15.68;;
75892;SDS011;64572;50.950;3.676;2023-03-01T07:59:37;27.45;;;14.50;;
75892;SDS011;64572;50.950;3.676;2023-03-01T08:02:03;30.45;;;14.00;;
75892;SDS011;64572;50.950;3.676;2023-03-01T08:04:29;28.38;;;14.63;;
75892;SDS011;64572;50.950;3.676;2023-03-01T08:06:54;31.83;;;15.13;;
75892;SDS011;64572;50.950;3.676;2023-03-01T08:09:20;27.88;;;13.82;;
75892;SDS011;64572;50.950;3.676;2023-03-01T08:11:46;29.17;;;14.52;;
75892;SDS011;64572;50.950;3.676;2023-03-01T08:14:12;31.25;;;14.73;;
75892;SDS011;64572;50.950;3.676;2023-03-01T08:16:38;21.80;;;11.27;;
75892;SDS011;64572;50.950;3.676;2023-03-01T08:19:04;17.20;;;6.63;;
75892;SDS011;64572;50.950;3.676;2023-03-01T08:21:31;18.08;;;8.35;;
75892;SDS011;64572;50.950;3.676;2023-03-01T08:23:59;26.40;;;13.30;;
75892;SDS011;64572;50.950;3.676;2023-03-01T08:26:28;27.40;;;12.98;;
75892;SDS011;64572;50.950;3.676;2023-03-01T08:28:54;23.80;;;11.00;;
75892;SDS011;64572;50.950;3.676;2023-03-01T08:31:24;22.80;;;9.57;;
75892;SDS011;64572;50.950;3.676;2023-03-01T08:33:53;24.63;;;11.25;;
75892;SDS011;64572;50.950;3.676;2023-03-01T08:36:21;21.23;;;11.20;;
75892;SDS011;64572;50.950;3.676;2023-03-01T08:39:05;22.85;;;12.35;;
75892;SDS011;64572;50.950;3.676;2023-03-01T08:41:32;23.88;;;12.80;;
75892;SDS011;64572;50.950;3.676;2023-03-01T08:43:58;21.30;;;11.77;;
75892;SDS011;64572;50.950;3.676;2023-03-01T08:46:34;28.10;;;12.45;;
75892;SDS011;64572;50.950;3.676;2023-03-01T08:49:05;27.27;;;12.40;;
75892;SDS011;64572;50.950;3.676;2023-03-01T08:51:32;21.85;;;11.57;;
75892;SDS011;64572;50.950;3.676;2023-03-01T08:54:02;23.10;;;11.15;;
75892;SDS011;64572;50.950;3.676;2023-03-01T08:56:29;19.17;;;9.68;;
75892;SDS011;64572;50.950;3.676;2023-03-01T08:58:54;18.10;;;9.15;;
75892;SDS011;64572;50.950;3.676;2023-03-01T09:01:20;19.38;;;8.63;;
75892;SDS011;64572;50.950;3.676;2023-03-01T09:03:46;22.55;;;11.18;;
75892;SDS011;64572;50.950;3.676;2023-03-01T09:06:12;17.23;;;8.85;;
75892;SDS011;64572;50.950;3.676;2023-03-01T09:08:42;20.08;;;10.20;;
75892;SDS011;64572;50.950;3.676;2023-03-01T09:11:10;23.67;;;11.25;;
75892;SDS011;64572;50.950;3.676;2023-03-01T09:13:37;18.35;;;8.35;;
75892;SDS011;64572;50.950;3.676;2023-03-01T09:16:03;17.42;;;7.53;;
75892;SDS011;64572;50.950;3.676;2023-03-01T09:18:30;21.73;;;10.13;;
75892;SDS011;64572;50.950;3.676;2023-03-01T09:21:01;19.10;;;9.73;;
75892;SDS011;64572;50.950;3.676;2023-03-01T09:23:32;19.77;;;10.93;;
75892;SDS011;64572;50.950;3.676;2023-03-01T09:26:06;23.40;;;11.38;;
75892;SDS011;64572;50.950;3.676;2023-03-01T09:28:33;18.55;;;9.90;;
75892;SDS011;64572;50.950;3.676;2023-03-01T09:31:00;18.98;;;8.30;;
75892;SDS011;64572;50.950;3.676;2023-03-01T09:33:27;16.60;;;7.72;;
75892;SDS011;64572;50.950;3.676;2023-03-01T09:35:58;18.52;;;9.63;;
75892;SDS011;64572;50.950;3.676;2023-03-01T09:38:28;19.77;;;10.80;;
75892;SDS011;64572;50.950;3.676;2023-03-01T09:40:54;16.98;;;8.10;;
75892;SDS011;64572;50.950;3.676;2023-03-01T09:43:23;20.00;;;9.40;;
75892;SDS011;64572;50.950;3.676;2023-03-01T09:45:52;19.42;;;11.05;;
75892;SDS011;64572;50.950;3.676;2023-03-01T09:48:21;18.00;;;9.82;;
75892;SDS011;64572;50.950;3.676;2023-03-01T09:50:51;18.85;;;9.90;;
75892;SDS011;64572;50.950;3.676;2023-03-01T09:53:21;18.42;;;9.30;;
75892;SDS011;64572;50.950;3.676;2023-03-01T09:55:54;19.70;;;10.02;;
75892;SDS011;64572;50.950;3.676;2023-03-01T10:01:34;20.67;;;8.90;;
75892;SDS011;64572;50.950;3.676;2023-03-01T10:09:48;18.67;;;9.75;;
75892;SDS011;64572;50.950;3.676;2023-03-01T10:12:18;15.80;;;7.70;;
75892;SDS011;64572;50.950;3.676;2023-03-01T10:14:59;18.33;;;9.07;;
75892;SDS011;64572;50.950;3.676;2023-03-01T10:20:14;14.68;;;7.03;;
75892;SDS011;64572;50.950;3.676;2023-03-01T10:22:42;15.90;;;9.13;;
75892;SDS011;64572;50.950;3.676;2023-03-01T10:25:12;16.40;;;8.20;;
75892;SDS011;64572;50.950;3.676;2023-03-01T10:30:35;14.88;;;7.10;;
75892;SDS011;64572;50.950;3.676;2023-03-01T10:33:05;15.50;;;8.02;;
75892;SDS011;64572;50.950;3.676;2023-03-01T10:35:40;18.77;;;8.63;;
75892;SDS011;64572;50.950;3.676;2023-03-01T10:38:09;15.52;;;8.70;;
75892;SDS011;64572;50.950;3.676;2023-03-01T10:43:21;14.50;;;8.38;;
75892;SDS011;64572;50.950;3.676;2023-03-01T10:45:48;14.70;;;8.05;;
75892;SDS011;64572;50.950;3.676;2023-03-01T10:48:18;16.40;;;8.52;;
75892;SDS011;64572;50.950;3.676;2023-03-01T10:51:03;16.38;;;9.07;;
75892;SDS011;64572;50.950;3.676;2023-03-01T10:56:15;16.23;;;8.30;;
75892;SDS011;64572;50.950;3.676;2023-03-01T10:58:56;17.70;;;9.00;;
75892;SDS011;64572;50.950;3.676;2023-03-01T11:03:55;18.58;;;7.20;;
75892;SDS011;64572;50.950;3.676;2023-03-01T11:06:31;17.98;;;8.15;;
75892;SDS011;64572;50.950;3.676;2023-03-01T11:08:57;17.45;;;7.38;;
75892;SDS011;64572;50.950;3.676;2023-03-01T11:11:44;18.33;;;8.85;;
75892;SDS011;64572;50.950;3.676;2023-03-01T11:14:21;17.63;;;8.85;;
75892;SDS011;64572;50.950;3.676;2023-03-01T11:16:49;18.55;;;9.23;;
75892;SDS011;64572;50.950;3.676;2023-03-01T11:19:27;15.25;;;8.02;;
75892;SDS011;64572;50.950;3.676;2023-03-01T11:24:44;15.27;;;7.30;;
75892;SDS011;64572;50.950;3.676;2023-03-01T11:27:21;18.27;;;8.88;;
75892;SDS011;64572;50.950;3.676;2023-03-01T11:32:32;14.98;;;8.82;;
75892;SDS011;64572;50.950;3.676;2023-03-01T11:35:15;18.50;;;9.43;;
75892;SDS011;64572;50.950;3.676;2023-03-01T11:40:39;18.45;;;8.35;;
75892;SDS011;64572;50.950;3.676;2023-03-01T11:51:01;15.85;;;7.47;;
75892;SDS011;64572;50.950;3.676;2023-03-01T11:53:55;14.18;;;7.45;;
75892;SDS011;64572;50.950;3.676;2023-03-01T12:10:26;15.15;;;7.30;;
75892;SDS011;64572;50.950;3.676;2023-03-01T12:33:22;14.20;;;6.88;;
75892;SDS011;64572;50.950;3.676;2023-03-01T12:44:45;15.57;;;6.53;;
75892;SDS011;64572;50.950;3.676;2023-03-01T12:47:55;13.85;;;7.18;;
75892;SDS011;64572;50.950;3.676;2023-03-01T12:50:42;14.85;;;7.35;;
75892;SDS011;64572;50.950;3.676;2023-03-01T12:53:17;13.77;;;6.68;;
75892;SDS011;64572;50.950;3.676;2023-03-01T12:56:01;13.50;;;6.78;;
75892;SDS011;64572;50.950;3.676;2023-03-01T12:58:36;12.88;;;6.82;;
75892;SDS011;64572;50.950;3.676;2023-03-01T13:11:35;14.32;;;6.22;;
75892;SDS011;64572;50.950;3.676;2023-03-01T13:16:45;16.55;;;8.65;;
75892;SDS011;64572;50.950;3.676;2023-03-01T13:19:17;17.52;;;8.45;;
75892;SDS011;64572;50.950;3.676;2023-03-01T13:21:51;14.02;;;6.70;;
75892;SDS011;64572;50.950;3.676;2023-03-01T13:24:31;13.13;;;6.35;;
75892;SDS011;64572;50.950;3.676;2023-03-01T13:29:43;12.07;;;5.85;;
75892;SDS011;64572;50.950;3.676;2023-03-01T13:32:27;11.50;;;5.53;;
75892;SDS011;64572;50.950;3.676;2023-03-01T13:35:06;11.40;;;5.60;;
75892;SDS011;64572;50.950;3.676;2023-03-01T13:37:43;13.60;;;6.10;;
75892;SDS011;64572;50.950;3.676;2023-03-01T13:42:44;12.63;;;5.90;;
75892;SDS011;64572;50.950;3.676;2023-03-01T13:45:19;13.05;;;5.82;;
75892;SDS011;64572;50.950;3.676;2023-03-01T13:48:08;13.18;;;6.40;;
75892;SDS011;64572;50.950;3.676;2023-03-01T13:50:43;12.18;;;5.90;;
75892;SDS011;64572;50.950;3.676;2023-03-01T13:53:17;12.57;;;6.10;;
75892;SDS011;64572;50.950;3.676;2023-03-01T13:55:45;11.55;;;5.60;;
75892;SDS011;64572;50.950;3.676;2023-03-01T13:58:19;13.20;;;6.05;;
75892;SDS011;64572;50.950;3.676;2023-03-01T14:00:54;10.88;;;5.45;;
75892;SDS011;64572;50.950;3.676;2023-03-01T14:03:21;15.98;;;6.22;;
75892;SDS011;64572;50.950;3.676;2023-03-01T14:08:38;11.30;;;5.85;;
75892;SDS011;64572;50.950;3.676;2023-03-01T14:21:41;13.55;;;5.57;;
75892;SDS011;64572;50.950;3.676;2023-03-01T14:24:14;11.20;;;5.38;;
75892;SDS011;64572;50.950;3.676;2023-03-01T14:26:47;13.25;;;5.90;;
75892;SDS011;64572;50.950;3.676;2023-03-01T14:29:25;13.18;;;5.80;;
75892;SDS011;64572;50.950;3.676;2023-03-01T14:34:35;27.02;;;6.25;;
75892;SDS011;64572;50.950;3.676;2023-03-01T14:37:14;12.95;;;5.35;;
75892;SDS011;64572;50.950;3.676;2023-03-01T14:39:43;12.65;;;5.88;;
75892;SDS011;64572;50.950;3.676;2023-03-01T14:42:08;12.38;;;5.82;;
75892;SDS011;64572;50.950;3.676;2023-03-01T14:44:34;14.55;;;6.18;;
75892;SDS011;64572;50.950;3.676;2023-03-01T14:49:29;12.63;;;6.18;;
75892;SDS011;64572;50.950;3.676;2023-03-01T14:52:06;11.63;;;6.07;;
75892;SDS011;64572;50.950;3.676;2023-03-01T14:54:49;12.88;;;6.03;;
75892;SDS011;64572;50.950;3.676;2023-03-01T14:57:21;11.50;;;6.10;;
75892;SDS011;64572;50.950;3.676;2023-03-01T14:59:49;13.32;;;6.68;;
75892;SDS011;64572;50.950;3.676;2023-03-01T15:02:23;11.57;;;5.78;;
75892;SDS011;64572;50.950;3.676;2023-03-01T15:04:51;13.88;;;7.00;;
75892;SDS011;64572;50.950;3.676;2023-03-01T15:07:26;14.57;;;6.97;;
75892;SDS011;64572;50.950;3.676;2023-03-01T15:09:55;15.60;;;7.43;;
75892;SDS011;64572;50.950;3.676;2023-03-01T15:14:52;14.02;;;6.93;;
75892;SDS011;64572;50.950;3.676;2023-03-01T15:17:32;13.43;;;7.03;;
75892;SDS011;64572;50.950;3.676;2023-03-01T15:20:04;15.35;;;7.78;;
75892;SDS011;64572;50.950;3.676;2023-03-01T15:22:38;19.55;;;7.68;;
75892;SDS011;64572;50.950;3.676;2023-03-01T15:25:16;15.60;;;8.07;;
75892;SDS011;64572;50.950;3.676;2023-03-01T15:27:48;16.95;;;8.43;;
75892;SDS011;64572;50.950;3.676;2023-03-01T15:30:18;17.05;;;8.48;;
75892;SDS011;64572;50.950;3.676;2023-03-01T15:35:49;14.50;;;7.53;;
75892;SDS011;64572;50.950;3.676;2023-03-01T15:41:26;15.90;;;7.70;;
75892;SDS011;64572;50.950;3.676;2023-03-01T15:43:56;16.00;;;7.20;;
75892;SDS011;64572;50.950;3.676;2023-03-01T15:46:24;15.85;;;7.65;;
75892;SDS011;64572;50.950;3.676;2023-03-01T15:49:00;15.00;;;6.88;;
75892;SDS011;64572;50.950;3.676;2023-03-01T15:51:29;16.65;;;7.18;;
75892;SDS011;64572;50.950;3.676;2023-03-01T15:53:58;16.65;;;8.45;;
75892;SDS011;64572;50.950;3.676;2023-03-01T15:56:25;16.48;;;6.78;;
75892;SDS011;64572;50.950;3.676;2023-03-01T15:58:51;15.98;;;7.65;;
75892;SDS011;64572;50.950;3.676;2023-03-01T16:01:17;16.88;;;7.03;;
75892;SDS011;64572;50.950;3.676;2023-03-01T16:03:43;13.32;;;6.70;;
75892;SDS011;64572;50.950;3.676;2023-03-01T16:06:09;14.88;;;6.32;;
75892;SDS011;64572;50.950;3.676;2023-03-01T16:08:36;20.27;;;7.50;;
75892;SDS011;64572;50.950;3.676;2023-03-01T16:11:04;17.63;;;7.43;;
75892;SDS011;64572;50.950;3.676;2023-03-01T16:13:34;16.25;;;8.07;;
75892;SDS011;64572;50.950;3.676;2023-03-01T16:15:59;18.00;;;8.13;;
75892;SDS011;64572;50.950;3.676;2023-03-01T16:18:25;16.08;;;7.95;;
75892;SDS011;64572;50.950;3.676;2023-03-01T16:20:50;17.40;;;7.20;;
75892;SDS011;64572;50.950;3.676;2023-03-01T16:23:17;17.17;;;8.35;;
75892;SDS011;64572;50.950;3.676;2023-03-01T16:25:43;16.50;;;7.65;;
75892;SDS011;64572;50.950;3.676;2023-03-01T16:28:09;15.30;;;7.72;;
75892;SDS011;64572;50.950;3.676;2023-03-01T16:30:35;14.52;;;7.30;;
75892;SDS011;64572;50.950;3.676;2023-03-01T16:33:01;14.52;;;7.40;;
75892;SDS011;64572;50.950;3.676;2023-03-01T16:35:27;17.90;;;8.35;;
75892;SDS011;64572;50.950;3.676;2023-03-01T16:37:54;18.80;;;8.23;;
75892;SDS011;64572;50.950;3.676;2023-03-01T16:40:20;17.65;;;8.32;;
75892;SDS011;64572;50.950;3.676;2023-03-01T16:42:51;16.90;;;8.32;;
75892;SDS011;64572;50.950;3.676;2023-03-01T16:45:18;14.90;;;7.15;;
75892;SDS011;64572;50.950;3.676;2023-03-01T16:47:44;18.30;;;7.80;;
75892;SDS011;64572;50.950;3.676;2023-03-01T16:50:10;18.55;;;8.05;;
75892;SDS011;64572;50.950;3.676;2023-03-01T16:52:36;28.55;;;9.50;;
75892;SDS011;64572;50.950;3.676;2023-03-01T16:55:03;18.45;;;9.48;;
75892;SDS011;64572;50.950;3.676;2023-03-01T16:57:33;18.50;;;8.35;;
75892;SDS011;64572;50.950;3.676;2023-03-01T16:59:59;17.27;;;7.05;;
75892;SDS011;64572;50.950;3.676;2023-03-01T17:02:25;16.80;;;8.95;;